createdAt,value
2018-12-04T00:00:44.128Z,1.39
2018-12-04T00:03:14.481Z,1.39
2018-12-04T00:05:44.763Z,1.40
2018-12-04T00:08:14.987Z,1.50
2018-12-04T00:10:45.294Z,1.54
2018-12-04T00:13:15.518Z,1.63
2018-12-04T00:15:45.864Z,1.52
2018-12-04T00:18:15.997Z,1.56
2018-12-04T00:20:46.437Z,1.52
2018-12-04T00:23:17.459Z,1.59
2018-12-04T00:25:48.129Z,1.66
2018-12-04T00:28:18.361Z,1.59
2018-12-04T00:30:49.096Z,1.36
2018-12-04T00:33:19.243Z,1.33
2018-12-04T00:35:49.778Z,1.43
2018-12-04T00:38:22.124Z,1.39
2018-12-04T00:40:52.491Z,1.45
2018-12-04T00:43:24.526Z,1.49
2018-12-04T00:45:54.767Z,1.54
2018-12-04T00:48:25.500Z,1.62
2018-12-04T00:50:55.856Z,1.50
2018-12-04T00:53:26.896Z,1.54
2018-12-04T00:55:58.319Z,1.47
2018-12-04T00:58:28.717Z,1.52
2018-12-04T01:00:59.470Z,1.55
2018-12-04T01:03:30.311Z,1.46
2018-12-04T01:06:01.658Z,1.49
2018-12-04T01:08:32.801Z,1.53
2018-12-04T01:11:02.993Z,1.38
2018-12-04T01:13:33.828Z,1.22
2018-12-04T01:16:04.117Z,1.17
2018-12-04T01:18:34.773Z,1.05
2018-12-04T01:21:05.417Z,0.96
2018-12-04T01:23:36.677Z,0.94
2018-12-04T01:26:07.178Z,1.03
2018-12-04T01:28:37.308Z,0.95
2018-12-04T01:31:07.926Z,0.92
2018-12-04T01:33:38.395Z,1.03
2018-12-04T01:36:09.098Z,1.17
2018-12-04T01:38:41.629Z,1.24
2018-12-04T01:41:12.349Z,1.10
2018-12-04T01:43:43.310Z,1.10
2018-12-04T01:46:14.356Z,1.18
2018-12-04T01:48:45.404Z,1.22
2018-12-04T01:51:16.417Z,1.29
2018-12-04T01:53:47.440Z,1.34
2018-12-04T01:56:18.532Z,1.34
2018-12-04T01:58:48.963Z,1.34
2018-12-04T02:01:19.313Z,1.43
2018-12-04T02:03:49.654Z,1.28
2018-12-04T02:06:20.605Z,1.22
2018-12-04T02:08:51.109Z,1.16
2018-12-04T02:11:22.010Z,1.04
2018-12-04T02:13:52.858Z,0.91
2018-12-04T02:16:23.621Z,0.88
2018-12-04T02:18:55.461Z,0.88
2018-12-04T02:21:26.750Z,0.74
2018-12-04T02:23:57.609Z,0.64
2018-12-04T02:26:28.441Z,0.69
2018-12-04T02:28:59.127Z,0.83
2018-12-04T02:31:31.791Z,1.00
2018-12-04T02:34:02.228Z,1.20
2018-12-04T02:36:32.727Z,1.30
2018-12-04T02:39:03.812Z,1.33
2018-12-04T02:41:34.708Z,1.45
2018-12-04T02:44:05.670Z,1.55
2018-12-04T02:46:36.437Z,1.61
2018-12-04T02:49:07.100Z,1.57
2018-12-04T02:51:37.737Z,1.56
2018-12-04T02:54:09.067Z,1.45
2018-12-04T02:56:40.037Z,1.33
2018-12-04T02:59:12.303Z,1.38
2018-12-04T03:01:43.031Z,1.38
2018-12-04T03:04:13.383Z,1.39
2018-12-04T03:06:43.589Z,1.43
2018-12-04T03:09:14.679Z,1.50
2018-12-04T03:11:45.166Z,1.56
2018-12-04T03:14:16.145Z,1.51
2018-12-04T03:16:46.276Z,1.28
2018-12-04T03:19:18.025Z,1.20
2018-12-04T03:21:48.949Z,1.05
2018-12-04T03:24:19.065Z,1.00
2018-12-04T03:26:49.592Z,0.90
2018-12-04T03:29:21.487Z,0.87
2018-12-04T03:31:52.260Z,0.71
2018-12-04T03:34:22.908Z,0.77
2018-12-04T03:36:53.642Z,0.79
2018-12-04T03:39:24.884Z,0.80
2018-12-04T03:41:55.521Z,0.87
2018-12-04T03:44:26.063Z,0.85
2018-12-04T03:46:56.424Z,0.92
2018-12-04T03:49:26.997Z,0.96
2018-12-04T03:51:57.822Z,0.93
2018-12-04T03:54:28.455Z,0.92
2018-12-04T03:56:58.745Z,0.97
2018-12-04T03:59:29.296Z,0.92
2018-12-04T04:02:00.430Z,0.86
2018-12-04T04:04:31.063Z,0.88
2018-12-04T04:07:02.446Z,0.90
2018-12-04T04:09:33.470Z,0.91
2018-12-04T04:12:06.231Z,1.01
2018-12-04T04:14:37.548Z,1.00
2018-12-04T04:17:07.916Z,0.96
2018-12-04T04:19:39.425Z,0.94
2018-12-04T04:22:10.557Z,0.92
2018-12-04T04:24:41.362Z,1.09
2018-12-04T04:27:12.135Z,1.21
2018-12-04T04:29:43.228Z,1.20
2018-12-04T04:32:15.043Z,1.20
2018-12-04T04:34:45.569Z,1.00
2018-12-04T04:37:15.846Z,1.03
2018-12-04T04:39:47.013Z,1.15
2018-12-04T04:42:18.385Z,1.10
2018-12-04T04:44:48.647Z,1.20
2018-12-04T04:47:19.070Z,1.23
2018-12-04T04:49:49.573Z,1.23
2018-12-04T04:52:21.223Z,1.18
2018-12-04T04:54:52.250Z,1.26
2018-12-04T04:57:22.814Z,1.26
2018-12-04T04:59:54.230Z,1.20
2018-12-04T05:02:24.821Z,1.20
2018-12-04T05:04:55.359Z,1.33
2018-12-04T05:07:26.202Z,1.41
2018-12-04T05:09:56.435Z,1.41
2018-12-04T05:12:26.580Z,1.33
2018-12-04T05:14:56.913Z,1.48
2018-12-04T05:17:27.135Z,1.62
2018-12-04T05:19:57.511Z,1.59
2018-12-04T05:22:27.912Z,1.66
2018-12-04T05:24:58.188Z,1.61
2018-12-04T05:27:28.256Z,1.58
2018-12-04T05:29:58.633Z,1.52
2018-12-04T05:32:28.926Z,1.46
2018-12-04T05:34:59.238Z,1.40
2018-12-04T05:37:29.578Z,1.40
2018-12-04T05:39:59.663Z,1.40
2018-12-04T05:42:30.066Z,1.41
2018-12-04T05:45:00.260Z,1.53
2018-12-04T05:47:30.528Z,1.46
2018-12-04T05:50:01.294Z,1.50
2018-12-04T05:52:31.720Z,1.54
2018-12-04T05:55:01.929Z,1.50
2018-12-04T05:57:32.130Z,1.44
2018-12-04T06:00:02.322Z,1.52
2018-12-04T06:02:32.671Z,1.54
2018-12-04T06:05:02.868Z,1.55
2018-12-04T06:07:33.097Z,1.56
2018-12-04T06:10:04.690Z,1.66
2018-12-04T06:12:34.956Z,1.68
2018-12-04T06:15:05.624Z,1.77
2018-12-04T06:17:36.050Z,1.82
2018-12-04T06:20:06.567Z,1.75
2018-12-04T06:22:36.841Z,1.76
2018-12-04T06:25:07.203Z,1.80
2018-12-04T06:27:37.599Z,1.89
2018-12-04T06:30:08.338Z,1.93
2018-12-04T06:32:38.691Z,1.98
2018-12-04T06:35:09.148Z,1.91
2018-12-04T06:37:39.434Z,1.81
2018-12-04T06:40:09.830Z,1.90
2018-12-04T06:42:40.102Z,1.91
2018-12-04T06:45:10.429Z,1.93
2018-12-04T06:47:40.936Z,1.93
2018-12-04T06:50:12.067Z,1.98
2018-12-04T06:52:42.321Z,2.05
2018-12-04T06:55:12.575Z,2.09
2018-12-04T06:57:42.805Z,2.02
2018-12-04T07:00:12.940Z,2.14
2018-12-04T07:02:43.247Z,2.18
2018-12-04T07:05:13.708Z,2.24
2018-12-04T07:07:44.186Z,2.31
2018-12-04T07:10:14.486Z,2.29
2018-12-04T07:12:44.790Z,2.45
2018-12-04T07:15:15.221Z,2.50
2018-12-04T07:17:45.365Z,2.52
2018-12-04T07:20:15.460Z,2.50
2018-12-04T07:22:45.635Z,2.56
2018-12-04T07:25:15.851Z,2.57
2018-12-04T07:27:46.076Z,2.63
2018-12-04T07:30:16.402Z,2.67
2018-12-04T07:32:46.643Z,2.74
2018-12-04T07:35:16.937Z,2.79
2018-12-04T07:37:47.161Z,2.76
2018-12-04T07:40:17.385Z,2.87
2018-12-04T07:42:47.620Z,2.90
2018-12-04T07:45:17.784Z,2.85
2018-12-04T07:47:47.985Z,2.91
2018-12-04T07:50:18.151Z,2.94
2018-12-04T07:52:48.460Z,2.96
2018-12-04T07:55:18.765Z,3.08
2018-12-04T07:57:49.069Z,3.14
2018-12-04T08:00:19.306Z,3.35
2018-12-04T08:02:49.447Z,3.45
2018-12-04T08:05:20.312Z,3.59
2018-12-04T08:07:50.514Z,3.68
2018-12-04T08:10:20.893Z,3.86
2018-12-04T08:12:51.195Z,3.88
2018-12-04T08:15:21.538Z,3.89
2018-12-04T08:17:51.816Z,3.98
2018-12-04T08:20:22.062Z,4.18
2018-12-04T08:22:52.905Z,4.38
2018-12-04T08:25:23.154Z,4.40
2018-12-04T08:27:53.443Z,4.64
2018-12-04T08:30:23.714Z,4.86
2018-12-04T08:32:54.047Z,5.05
2018-12-04T08:35:24.262Z,5.23
2018-12-04T08:37:54.528Z,5.34
2018-12-04T08:40:24.766Z,5.40
2018-12-04T08:42:55.016Z,5.64
2018-12-04T08:45:25.252Z,5.66
2018-12-04T08:47:55.484Z,5.72
2018-12-04T08:50:25.751Z,5.87
2018-12-04T08:52:55.864Z,5.80
2018-12-04T08:55:26.120Z,6.02
2018-12-04T08:57:56.397Z,5.99
2018-12-04T09:00:26.588Z,6.08
2018-12-04T09:02:56.817Z,6.01
2018-12-04T09:05:26.986Z,6.01
2018-12-04T09:24:17.749Z,6.50
2018-12-04T09:26:48.115Z,6.38
2018-12-04T09:29:18.767Z,6.25
2018-12-04T09:31:49.302Z,6.20
2018-12-04T09:34:19.538Z,6.23
2018-12-04T09:36:49.782Z,6.26
2018-12-04T09:39:20.088Z,6.28
2018-12-04T09:41:50.437Z,6.20
2018-12-04T09:44:20.944Z,6.22
2018-12-04T09:46:51.373Z,6.21
2018-12-04T09:49:21.862Z,6.34
2018-12-04T09:51:51.965Z,6.39
2018-12-04T09:54:22.343Z,6.36
2018-12-04T09:56:52.529Z,6.37
2018-12-04T09:59:23.047Z,6.35
2018-12-04T10:01:53.410Z,6.39
2018-12-04T10:04:23.710Z,6.40
2018-12-04T10:06:54.053Z,6.54
2018-12-04T10:09:24.362Z,6.40
2018-12-04T10:11:55.550Z,6.24
2018-12-04T10:14:25.928Z,6.33
2018-12-04T10:16:56.236Z,6.37
2018-12-04T10:19:27.653Z,6.35
2018-12-04T10:21:57.829Z,6.47
2018-12-04T10:24:28.062Z,6.59
2018-12-04T10:26:59.147Z,6.82
2018-12-04T10:29:29.447Z,6.91
2018-12-04T10:31:59.770Z,7.01
2018-12-04T10:34:30.042Z,7.11
2018-12-04T10:37:00.222Z,7.16
2018-12-04T10:39:31.161Z,7.34
2018-12-04T10:42:01.454Z,7.46
2018-12-04T10:44:31.741Z,7.48
2018-12-04T10:47:02.268Z,7.30
2018-12-04T10:49:33.111Z,7.55
2018-12-04T10:52:03.428Z,7.62
2018-12-04T10:54:33.650Z,7.51
2018-12-04T10:57:09.666Z,7.49
2018-12-04T10:59:36.278Z,7.50
2018-12-04T11:02:12.955Z,7.55
2018-12-04T11:04:43.344Z,7.27
2018-12-04T11:07:13.721Z,7.13
2018-12-04T11:09:45.209Z,7.10
2018-12-04T11:12:15.597Z,7.13
2018-12-04T11:14:45.946Z,7.10
2018-12-04T11:17:16.222Z,7.20
2018-12-04T11:19:46.650Z,7.20
2018-12-04T11:22:17.076Z,7.22
2018-12-04T11:24:47.407Z,7.03
2018-12-04T11:27:17.742Z,6.98
2018-12-04T11:29:48.052Z,6.86
2018-12-04T11:32:18.289Z,6.86
2018-12-04T11:34:48.534Z,6.79
2018-12-04T11:37:18.915Z,6.65
2018-12-04T11:39:49.178Z,6.80
2018-12-04T11:42:19.571Z,6.84
2018-12-04T11:44:49.963Z,6.92
2018-12-04T11:47:20.839Z,6.86
2018-12-04T11:49:51.221Z,6.79
2018-12-04T12:09:01.851Z,6.44
2018-12-04T12:11:32.305Z,6.35
2018-12-04T12:14:03.213Z,6.14
2018-12-04T12:16:33.485Z,5.94
2018-12-04T12:19:03.904Z,5.97
2018-12-04T12:21:34.136Z,6.09
2018-12-04T12:24:04.453Z,6.13
2018-12-04T12:26:34.650Z,6.26
2018-12-04T12:29:04.953Z,6.10
2018-12-04T12:31:35.235Z,6.04
2018-12-04T12:34:05.469Z,6.12
2018-12-04T12:36:35.544Z,6.05
2018-12-04T12:39:08.608Z,6.16
2018-12-04T12:41:40.993Z,6.42
2018-12-04T12:44:11.467Z,6.71
2018-12-04T12:46:41.629Z,6.87
2018-12-04T12:49:12.549Z,7.04
2018-12-04T12:51:42.932Z,6.88
2018-12-04T12:54:13.234Z,6.74
2018-12-04T12:56:43.456Z,6.75
2018-12-04T12:59:13.785Z,6.93
2018-12-04T13:01:43.952Z,6.98
2018-12-04T13:04:14.215Z,7.04
2018-12-04T13:06:44.434Z,6.90
2018-12-04T13:09:14.666Z,7.01
2018-12-04T13:11:44.853Z,6.97
2018-12-04T13:14:14.981Z,6.98
2018-12-04T13:16:45.313Z,6.87
2018-12-04T13:19:15.865Z,6.88
2018-12-04T13:21:46.170Z,6.84
2018-12-04T13:24:16.452Z,6.83
2018-12-04T13:26:46.683Z,6.77
2018-12-04T13:29:16.949Z,6.78
2018-12-04T13:31:47.252Z,6.57
2018-12-04T13:34:17.550Z,6.56
2018-12-04T13:36:47.709Z,6.42
2018-12-04T13:39:18.138Z,6.23
2018-12-04T13:41:48.362Z,6.09
2018-12-04T13:44:20.140Z,6.04
2018-12-04T13:46:50.505Z,5.94
2018-12-04T13:49:20.889Z,5.95
2018-12-04T13:51:51.047Z,5.87
2018-12-04T13:54:22.245Z,5.80
2018-12-04T13:56:52.581Z,5.83
2018-12-04T13:59:23.062Z,5.84
2018-12-04T14:01:53.430Z,5.85
2018-12-04T14:04:23.709Z,5.94
2018-12-04T14:06:53.940Z,5.98
2018-12-04T14:09:26.117Z,5.86
2018-12-04T14:11:56.669Z,5.93
2018-12-04T14:14:26.984Z,5.98
2018-12-04T14:16:57.289Z,6.04
2018-12-04T14:19:27.591Z,5.98
2018-12-04T14:21:57.798Z,6.01
2018-12-04T14:24:28.207Z,6.00
2018-12-04T14:26:58.477Z,6.00
2018-12-04T14:29:28.678Z,5.92
2018-12-04T14:31:59.139Z,5.91
2018-12-04T14:34:29.929Z,5.89
2018-12-04T14:37:00.196Z,5.83
2018-12-04T14:39:30.505Z,5.84
2018-12-04T14:42:00.925Z,5.75
2018-12-04T14:44:31.435Z,5.76
2018-12-04T14:47:01.899Z,5.72
2018-12-04T14:49:32.140Z,5.59
2018-12-04T14:52:03.021Z,5.65
2018-12-04T14:54:33.157Z,5.65
2018-12-04T14:57:03.537Z,5.60
2018-12-04T14:59:33.828Z,5.56
2018-12-04T15:02:04.428Z,5.32
2018-12-04T15:04:34.820Z,5.22
2018-12-04T15:07:05.209Z,4.99
2018-12-04T15:09:35.629Z,4.95
2018-12-04T15:12:05.987Z,4.94
2018-12-04T15:14:36.373Z,4.93
2018-12-04T15:17:07.368Z,4.88
2018-12-04T15:19:37.825Z,4.89
2018-12-04T15:22:08.195Z,4.85
2018-12-04T15:24:38.356Z,4.76
2018-12-04T15:27:08.761Z,4.68
2018-12-04T15:29:39.206Z,4.69
2018-12-04T15:32:09.595Z,4.70
2018-12-04T15:34:39.947Z,4.82
2018-12-04T15:37:10.329Z,4.82
2018-12-04T15:39:40.650Z,4.82
2018-12-04T15:42:11.184Z,4.80
2018-12-04T15:44:41.503Z,4.84
2018-12-04T15:47:12.861Z,4.82
2018-12-04T15:49:44.515Z,4.81
2018-12-04T15:52:15.039Z,4.83
2018-12-04T15:54:45.599Z,4.79
2018-12-04T15:57:16.119Z,4.80
2018-12-04T15:59:46.393Z,4.85
2018-12-04T16:02:16.875Z,4.83
2018-12-04T16:04:47.184Z,4.93
2018-12-04T16:07:17.386Z,4.90
2018-12-04T16:09:47.881Z,4.95
2018-12-04T16:12:18.228Z,5.02
2018-12-04T16:14:48.609Z,5.09
2018-12-04T16:17:18.967Z,5.18
2018-12-04T16:19:49.393Z,5.26
2018-12-04T16:22:19.767Z,5.28
2018-12-04T16:24:50.253Z,5.31
2018-12-04T16:27:21.177Z,5.31
2018-12-04T16:29:51.439Z,5.35
2018-12-04T16:32:21.707Z,5.45
2018-12-04T16:34:51.978Z,5.54
2018-12-04T16:37:22.222Z,5.59
2018-12-04T16:39:52.540Z,5.47
2018-12-04T16:42:22.917Z,5.54
2018-12-04T16:44:53.288Z,5.64
2018-12-04T16:47:23.610Z,5.70
2018-12-04T16:49:53.859Z,5.69
2018-12-04T16:52:24.359Z,5.61
2018-12-04T16:54:54.653Z,5.62
2018-12-04T16:57:25.198Z,5.65
2018-12-04T16:59:55.629Z,5.69
2018-12-04T17:02:26.215Z,5.66
2018-12-04T17:04:56.612Z,5.61
2018-12-04T17:07:26.872Z,5.57
2018-12-04T17:09:57.374Z,5.53
2018-12-04T17:12:27.651Z,5.41
2018-12-04T17:14:57.996Z,5.46
2018-12-04T17:17:28.326Z,5.45
2018-12-04T17:19:58.691Z,5.35
2018-12-04T17:22:29.192Z,5.38
2018-12-04T17:24:59.420Z,5.43
2018-12-04T17:27:29.667Z,5.46
2018-12-04T17:30:00.034Z,5.49
2018-12-04T17:32:31.386Z,5.52
2018-12-04T17:35:01.905Z,5.48
2018-12-04T17:37:33.375Z,5.47
2018-12-04T17:40:04.469Z,5.41
2018-12-04T17:42:34.865Z,5.44
2018-12-04T17:45:05.835Z,5.42
2018-12-04T17:47:36.090Z,5.50
2018-12-04T17:50:07.864Z,5.55
2018-12-04T17:52:38.338Z,5.53
2018-12-04T17:55:08.964Z,5.56
2018-12-04T17:57:39.207Z,5.57
2018-12-04T18:00:11.457Z,5.57
2018-12-04T18:02:43.618Z,5.56
2018-12-04T18:05:13.822Z,5.60
2018-12-04T18:07:46.210Z,5.66
2018-12-04T18:10:16.644Z,5.64
2018-12-04T18:12:47.191Z,5.63
2018-12-04T18:15:19.567Z,5.62
2018-12-04T18:17:49.774Z,5.53
2018-12-04T18:20:20.252Z,5.54
2018-12-04T18:22:50.632Z,5.57
2018-12-04T18:25:21.191Z,5.57
2018-12-04T18:27:51.432Z,5.56
2018-12-04T18:30:21.701Z,5.57
2018-12-04T18:32:52.954Z,5.49
2018-12-04T18:35:24.114Z,5.50
2018-12-04T18:37:54.361Z,5.54
2018-12-04T18:40:24.631Z,5.50
2018-12-04T18:42:55.881Z,5.44
2018-12-04T18:45:26.196Z,5.51
2018-12-04T18:47:56.579Z,5.46
2018-12-04T18:50:26.946Z,5.45
2018-12-04T18:52:57.722Z,5.48
2018-12-04T18:55:28.038Z,5.47
2018-12-04T18:57:58.348Z,5.46
2018-12-04T19:00:28.793Z,5.37
2018-12-04T19:02:59.112Z,5.33
2018-12-04T19:05:29.665Z,5.30
2018-12-04T19:08:00.064Z,5.26
2018-12-04T19:10:30.370Z,5.31
2018-12-04T19:13:00.595Z,5.34
2018-12-04T19:15:30.796Z,5.38
2018-12-04T19:18:01.141Z,5.39
2018-12-04T19:20:31.490Z,5.41
2018-12-04T19:23:02.060Z,5.46
2018-12-04T19:25:32.428Z,5.52
2018-12-04T19:28:03.213Z,5.56
2018-12-04T19:30:33.631Z,5.56
2018-12-04T19:33:03.934Z,5.59
2018-12-04T19:35:34.070Z,5.55
2018-12-04T19:38:06.828Z,5.45
2018-12-04T19:40:37.348Z,5.51
2018-12-04T19:43:07.754Z,5.50
2018-12-04T19:45:38.142Z,5.58
2018-12-04T19:48:08.368Z,5.62
2018-12-04T19:50:38.590Z,5.65
2018-12-04T19:53:08.937Z,5.68
2018-12-04T19:55:39.270Z,5.69
2018-12-04T19:58:10.236Z,5.70
2018-12-04T20:00:40.549Z,5.72
2018-12-04T20:03:10.749Z,5.69
2018-12-04T20:05:41.040Z,5.74
2018-12-04T20:08:11.390Z,5.75
2018-12-04T20:10:41.607Z,5.70
2018-12-04T20:13:12.102Z,5.74
2018-12-04T20:15:42.510Z,5.73
2018-12-04T20:18:12.702Z,5.72
2018-12-04T20:20:42.754Z,5.65
2018-12-04T20:23:13.146Z,5.58
2018-12-04T20:25:43.449Z,5.57
2018-12-04T20:28:13.746Z,5.53
2018-12-04T20:30:44.412Z,5.56
2018-12-04T20:33:14.531Z,5.62
2018-12-04T20:35:44.802Z,5.65
2018-12-04T20:38:15.290Z,5.64
2018-12-04T20:40:45.550Z,5.59
2018-12-04T20:43:15.947Z,5.56
2018-12-04T20:45:46.342Z,5.47
2018-12-04T20:48:16.622Z,5.51
2018-12-04T20:50:46.953Z,5.55
2018-12-04T20:53:17.297Z,5.48
2018-12-04T20:55:47.521Z,5.48
2018-12-04T20:58:17.845Z,5.43
2018-12-04T21:00:48.124Z,5.43
2018-12-04T21:03:18.312Z,5.46
2018-12-04T21:05:48.512Z,5.55
2018-12-04T21:08:18.758Z,5.55
2018-12-04T21:10:49.078Z,5.51
2018-12-04T21:13:19.286Z,5.53
2018-12-04T21:15:49.621Z,5.56
2018-12-04T21:18:19.891Z,5.61
2018-12-04T21:20:50.255Z,5.59
2018-12-04T21:23:20.512Z,5.43
2018-12-04T21:25:50.659Z,5.50
2018-12-04T21:28:23.263Z,5.56
2018-12-04T21:30:58.615Z,5.62
2018-12-04T21:33:34.519Z,5.58
2018-12-04T21:36:09.992Z,5.45
2018-12-04T21:39:04.477Z,5.49
2018-12-04T21:41:39.668Z,5.54
2018-12-04T21:44:15.075Z,5.41
2018-12-04T21:46:50.493Z,5.37
2018-12-04T21:49:20.790Z,5.39
2018-12-04T21:51:51.038Z,5.44
2018-12-04T21:54:21.468Z,5.45
2018-12-04T21:56:51.765Z,5.48
2018-12-04T21:59:21.941Z,5.52
2018-12-04T22:01:52.198Z,5.49
2018-12-04T22:04:22.493Z,5.53
2018-12-04T22:06:52.745Z,5.56
2018-12-04T22:09:22.977Z,5.60
2018-12-04T22:11:53.175Z,5.51
2018-12-04T22:14:23.426Z,5.56
2018-12-04T22:16:54.446Z,5.51
2018-12-04T22:19:24.883Z,5.56
2018-12-04T22:21:55.429Z,5.55
2018-12-04T22:24:26.085Z,5.62
2018-12-04T22:26:56.534Z,5.71
2018-12-04T22:29:27.074Z,5.78
2018-12-04T22:31:57.486Z,5.81
2018-12-04T22:34:27.640Z,5.77
2018-12-04T22:36:57.930Z,5.69
2018-12-04T22:39:28.211Z,5.73
2018-12-04T22:41:58.352Z,5.77
2018-12-04T22:44:28.551Z,5.54
2018-12-04T22:46:58.893Z,5.23
2018-12-04T22:49:29.225Z,5.35
2018-12-04T22:51:59.476Z,5.50
2018-12-04T22:54:29.750Z,5.55
2018-12-04T22:56:59.963Z,5.63
2018-12-04T22:59:30.328Z,5.54
2018-12-04T23:02:01.544Z,5.61
2018-12-04T23:04:31.803Z,5.71
2018-12-04T23:07:02.097Z,5.55
2018-12-04T23:09:32.497Z,5.50
2018-12-04T23:12:03.050Z,5.57
2018-12-04T23:14:33.731Z,5.64
2018-12-04T23:17:04.253Z,5.64
2018-12-04T23:19:34.576Z,5.65
2018-12-04T23:22:05.727Z,5.68
2018-12-04T23:24:36.962Z,5.70
2018-12-04T23:27:07.349Z,5.69
2018-12-04T23:29:37.588Z,5.70
2018-12-04T23:32:07.800Z,5.77
2018-12-04T23:34:38.037Z,5.87
2018-12-04T23:37:08.300Z,5.94
2018-12-04T23:39:38.433Z,5.95
2018-12-04T23:42:08.671Z,5.87
2018-12-04T23:44:38.914Z,5.85
2018-12-04T23:47:09.223Z,5.89
2018-12-04T23:49:39.391Z,5.88
2018-12-04T23:52:09.707Z,5.86
2018-12-04T23:54:39.974Z,5.88
2018-12-04T23:57:10.160Z,5.89
2018-12-04T23:59:40.448Z,5.94
